Search flights

Syros Airport, Syros (LGSO)

Airport Weather & NOTAM's

METAR for:LGSO (Syros Island Arpt, K, GR)
Text:LGSO 231450Z 36011KT CAVOK 26/18 Q1006
Conditions at:1450 UTC 23 Jun 2024
Temperature: 26.0°C ( 79°F)
Dewpoint: 18.0°C ( 64°F) [RH = 61%]
Pressure (altimeter):29.70 inches Hg (1006.0 mb)
Winds:from the N (360 degrees) at 13 MPH (11 knots; 5.7 m/s)
Visibility:6 or more sm (10+ km)
Ceiling:ceiling and visibility are OK
Clouds:unknown

Live Departures & Arrivals

There are currently no arrivals or departures for this airport.

Departures History (last 12 months)

Flight No. Dest. Aircraft Date
MSE10LG LGNX Black Squa... 2024-06-18 02:06:32
MSE1423 LGNX Cessna T20... 2024-05-15 10:22:24

Arrivals History (last 12 months)

Flight No. Origin Aircraft Date
MSE09LG LGMK Kodiak 100... 2024-06-17 10:33:52
MSE0204 LGMK Black Squa... 2024-05-15 01:08:48

Runway Information (Airport elevation: 236ft)

Runway 18 Length 3,320ft Width 98ft Elevation 231ft Surface Concrete Heading 181
Runway 36 Length 3,320ft Width 98ft Elevation 231ft Surface Concrete Heading 1

Airport Frequencies

Type UC Frequency 118.850 Mhz
Type APP/DEP Frequency 123.975 Mhz

Airport Navaids

Type NDB Ident SYR Frequency 417 Khz